createdAt,value
2023-01-11T00:00:40.240Z,100577.00
2023-01-11T00:03:07.265Z,100569.00
2023-01-11T00:05:43.910Z,100591.00
2023-01-11T00:08:11.783Z,100570.00
2023-01-11T00:10:38.643Z,100564.00
2023-01-11T00:13:05.685Z,100574.00
2023-01-11T00:15:32.676Z,100575.00
2023-01-11T00:17:59.411Z,100570.00
2023-01-11T00:20:26.205Z,100573.00
2023-01-11T00:22:53.134Z,100580.00
2023-01-11T00:25:19.863Z,100571.00
2023-01-11T00:27:49.468Z,100571.00
2023-01-11T00:30:17.371Z,100571.00
2023-01-11T00:32:44.372Z,100582.00
2023-01-11T00:35:11.012Z,100570.00
2023-01-11T00:37:37.696Z,100579.00
2023-01-11T00:40:04.920Z,100570.00
2023-01-11T00:42:49.964Z,100567.00
2023-01-11T00:45:35.332Z,100570.00
2023-01-11T00:48:05.994Z,100564.00
2023-01-11T00:50:37.903Z,100563.00
2023-01-11T00:53:05.212Z,100562.00
2023-01-11T00:55:32.337Z,100571.00
2023-01-11T00:57:59.214Z,100576.00
2023-01-11T01:00:26.454Z,100576.00
2023-01-11T01:02:53.175Z,100576.00
2023-01-11T01:05:20.502Z,100566.00
2023-01-11T01:07:47.373Z,100567.00
2023-01-11T01:10:16.136Z,100571.00
2023-01-11T01:13:01.275Z,100579.00
2023-01-11T01:15:28.274Z,100588.00
2023-01-11T01:17:55.327Z,100586.00
2023-01-11T01:20:23.395Z,100597.00
2023-01-11T01:22:50.547Z,100595.00
2023-01-11T01:25:17.738Z,100601.00
2023-01-11T01:27:44.537Z,100593.00
2023-01-11T01:30:11.777Z,100598.00
2023-01-11T01:32:38.477Z,100593.00
2023-01-11T01:35:05.387Z,100589.00
2023-01-11T01:37:31.982Z,100595.00
2023-01-11T01:39:58.592Z,100607.00
2023-01-11T01:42:25.439Z,100604.00
2023-01-11T01:44:54.633Z,100614.00
2023-01-11T01:47:49.688Z,100609.00
2023-01-11T01:50:37.603Z,100622.00
2023-01-11T01:53:16.992Z,100608.00
2023-01-11T01:55:48.911Z,100627.00
2023-01-11T01:58:18.031Z,100623.00
2023-01-11T02:00:46.083Z,100613.00
2023-01-11T02:03:18.137Z,100612.00
2023-01-11T02:05:45.626Z,100622.00
2023-01-11T02:08:19.860Z,100628.00
2023-01-11T02:10:46.805Z,100627.00
2023-01-11T02:13:14.582Z,100620.00
2023-01-11T02:15:41.450Z,100628.00
2023-01-11T02:18:13.199Z,100631.00
2023-01-11T02:21:06.319Z,100622.00
2023-01-11T02:24:11.143Z,100629.00
2023-01-11T02:27:10.160Z,100629.00
2023-01-11T02:29:57.803Z,100637.00
2023-01-11T02:32:34.149Z,100639.00
2023-01-11T02:35:26.553Z,100633.00
2023-01-11T02:38:17.992Z,100640.00
2023-01-11T02:41:16.863Z,100660.00
2023-01-11T02:44:13.107Z,100658.00
2023-01-11T02:46:42.943Z,100643.00
2023-01-11T02:49:15.876Z,100651.00
2023-01-11T02:52:03.056Z,100661.00
2023-01-11T02:54:31.724Z,100661.00
2023-01-11T02:57:00.570Z,100660.00
2023-01-11T02:59:33.079Z,100663.00
2023-01-11T03:01:59.813Z,100668.00
2023-01-11T03:04:35.874Z,100667.00
2023-01-11T03:07:08.384Z,100656.00
2023-01-11T03:09:47.574Z,100666.00
2023-01-11T03:12:52.789Z,100681.00
2023-01-11T03:15:43.872Z,100695.00
2023-01-11T03:18:48.763Z,100689.00
2023-01-11T03:21:50.318Z,100690.00
2023-01-11T03:24:38.327Z,100700.00
2023-01-11T03:27:20.430Z,100709.00
2023-01-11T03:29:51.955Z,100708.00
2023-01-11T03:32:35.774Z,100721.00
2023-01-11T03:35:02.566Z,100722.00
2023-01-11T03:37:45.805Z,100705.00
2023-01-11T03:40:23.779Z,100707.00
2023-01-11T03:43:11.635Z,100716.00
2023-01-11T03:45:54.086Z,100729.00
2023-01-11T03:48:34.622Z,100732.00
2023-01-11T03:51:03.330Z,100740.00
2023-01-11T03:53:32.923Z,100736.00
2023-01-11T03:56:00.650Z,100735.00
2023-01-11T03:58:27.929Z,100744.00
2023-01-11T04:00:56.400Z,100751.00
2023-01-11T04:03:24.876Z,100754.00
2023-01-11T04:05:58.113Z,100757.00
2023-01-11T04:08:24.881Z,100770.00
2023-01-11T04:10:51.784Z,100764.00
2023-01-11T04:13:18.436Z,100766.00
2023-01-11T04:15:45.186Z,100782.00
2023-01-11T04:18:11.838Z,100779.00
2023-01-11T04:20:40.415Z,100788.00
2023-01-11T04:23:09.661Z,100787.00
2023-01-11T04:25:36.626Z,100787.00
2023-01-11T04:28:04.085Z,100798.00
2023-01-11T04:30:30.748Z,100800.00
2023-01-11T04:32:59.275Z,100797.00
2023-01-11T04:35:26.595Z,100808.00
2023-01-11T04:37:57.260Z,100807.00
2023-01-11T04:40:25.319Z,100810.00
2023-01-11T04:42:51.999Z,100804.00
2023-01-11T04:45:18.709Z,100815.00
2023-01-11T04:47:45.365Z,100812.00
2023-01-11T04:50:12.220Z,100810.00
2023-01-11T04:52:41.587Z,100825.00
2023-01-11T04:55:09.270Z,100818.00
2023-01-11T04:57:35.976Z,100816.00
2023-01-11T05:00:02.713Z,100822.00
2023-01-11T05:02:29.315Z,100821.00
2023-01-11T05:04:55.989Z,100825.00
2023-01-11T05:07:22.594Z,100829.00
2023-01-11T05:09:49.206Z,100838.00
2023-01-11T05:12:15.763Z,100834.00
2023-01-11T05:14:42.400Z,100844.00
2023-01-11T05:17:13.749Z,100848.00
2023-01-11T05:19:40.484Z,100849.00
2023-01-11T05:22:07.792Z,100844.00
2023-01-11T05:24:34.480Z,100850.00
2023-01-11T05:27:01.278Z,100855.00
2023-01-11T05:29:28.654Z,100849.00
2023-01-11T05:31:55.882Z,100848.00
2023-01-11T05:34:22.661Z,100865.00
2023-01-11T05:36:49.340Z,100861.00
2023-01-11T05:39:16.011Z,100868.00
2023-01-11T05:41:42.961Z,100867.00
2023-01-11T05:44:32.273Z,100870.00
2023-01-11T05:46:59.538Z,100884.00
2023-01-11T05:49:26.337Z,100872.00
2023-01-11T05:51:52.948Z,100875.00
2023-01-11T05:54:19.649Z,100876.00
2023-01-11T05:56:46.310Z,100878.00
2023-01-11T05:59:12.973Z,100883.00
2023-01-11T06:01:39.793Z,100885.00
2023-01-11T06:04:08.471Z,100894.00
2023-01-11T06:06:35.339Z,100906.00
2023-01-11T06:09:01.971Z,100918.00
2023-01-11T06:11:28.792Z,100909.00
2023-01-11T06:13:55.533Z,100917.00
2023-01-11T06:16:23.619Z,100917.00
2023-01-11T06:18:52.308Z,100914.00
2023-01-11T06:21:20.193Z,100918.00
2023-01-11T06:23:50.685Z,100924.00
2023-01-11T06:26:20.548Z,100921.00
2023-01-11T06:28:47.722Z,100933.00
2023-01-11T06:31:17.078Z,100940.00
2023-01-11T06:33:44.772Z,100939.00
2023-01-11T06:36:12.507Z,100946.00
2023-01-11T06:38:39.577Z,100949.00
2023-01-11T06:41:10.808Z,100962.00
2023-01-11T06:43:41.058Z,100963.00
2023-01-11T06:46:14.004Z,100971.00
2023-01-11T06:48:40.898Z,100979.00
2023-01-11T06:51:07.674Z,100975.00
2023-01-11T06:53:34.505Z,100962.00
2023-01-11T06:56:01.247Z,100967.00
2023-01-11T06:58:28.351Z,100969.00
2023-01-11T07:00:57.401Z,100979.00
2023-01-11T07:03:26.011Z,100976.00
2023-01-11T07:05:54.227Z,100978.00
2023-01-11T07:08:20.980Z,100977.00
2023-01-11T07:10:47.768Z,100986.00
2023-01-11T07:13:18.474Z,100995.00
2023-01-11T07:15:48.468Z,100985.00
2023-01-11T07:18:15.177Z,101001.00
2023-01-11T07:20:42.074Z,100994.00
2023-01-11T07:23:09.696Z,101000.00
2023-01-11T07:25:36.691Z,101007.00
2023-01-11T07:28:06.885Z,101027.00
2023-01-11T07:30:47.887Z,101021.00
2023-01-11T07:33:22.035Z,101031.00
2023-01-11T07:35:49.600Z,101036.00
2023-01-11T07:38:16.321Z,101043.00
2023-01-11T07:40:43.131Z,101044.00
2023-01-11T07:43:14.607Z,101046.00
2023-01-11T07:45:49.728Z,101051.00
2023-01-11T07:48:25.247Z,101046.00
2023-01-11T07:50:52.940Z,101065.00
2023-01-11T07:53:19.769Z,101060.00
2023-01-11T07:55:47.339Z,101072.00
2023-01-11T07:58:15.502Z,101056.00
2023-01-11T08:00:42.267Z,101066.00
2023-01-11T08:03:09.246Z,101063.00
2023-01-11T08:05:36.117Z,101060.00
2023-01-11T08:08:03.075Z,101065.00
2023-01-11T08:10:29.910Z,101073.00
2023-01-11T08:13:15.198Z,101083.00
2023-01-11T08:15:42.776Z,101079.00
2023-01-11T08:18:11.837Z,101087.00
2023-01-11T08:20:39.660Z,101093.00
2023-01-11T08:23:07.972Z,101099.00
2023-01-11T08:25:34.744Z,101094.00
2023-01-11T08:28:03.194Z,101099.00
2023-01-11T08:30:30.304Z,101104.00
2023-01-11T08:32:57.675Z,101105.00
2023-01-11T08:35:25.817Z,101095.00
2023-01-11T08:37:52.633Z,101093.00
2023-01-11T08:40:20.118Z,101095.00
2023-01-11T08:42:47.647Z,101104.00
2023-01-11T08:45:14.464Z,101108.00
2023-01-11T08:47:41.163Z,101106.00
2023-01-11T08:50:09.683Z,101103.00
2023-01-11T08:52:36.399Z,101111.00
2023-01-11T08:55:03.326Z,101118.00
2023-01-11T08:57:29.972Z,101111.00
2023-01-11T08:59:56.610Z,101113.00
2023-01-11T09:02:23.292Z,101120.00
2023-01-11T09:04:49.899Z,101122.00
2023-01-11T09:07:16.573Z,101119.00
2023-01-11T09:09:43.200Z,101128.00
2023-01-11T09:12:09.790Z,101127.00
2023-01-11T09:14:36.498Z,101126.00
2023-01-11T09:17:03.129Z,101140.00
2023-01-11T09:19:29.854Z,101143.00
2023-01-11T09:21:57.982Z,101144.00
2023-01-11T09:24:24.680Z,101149.00
2023-01-11T09:26:51.488Z,101153.00
2023-01-11T09:29:19.256Z,101154.00
2023-01-11T09:31:46.333Z,101153.00
2023-01-11T09:34:13.321Z,101155.00
2023-01-11T09:36:40.360Z,101164.00
2023-01-11T09:39:14.561Z,101165.00
2023-01-11T09:42:01.244Z,101171.00
2023-01-11T09:44:29.805Z,101178.00
2023-01-11T09:47:51.921Z,101184.00
2023-01-11T09:50:26.614Z,101177.00
2023-01-11T09:53:28.202Z,101194.00
2023-01-11T09:55:58.517Z,101195.00
2023-01-11T09:58:34.797Z,101197.00
2023-01-11T10:01:43.667Z,101205.00
2023-01-11T10:04:41.793Z,101210.00
2023-01-11T10:07:20.939Z,101207.00
2023-01-11T10:18:39.409Z,101203.00
2023-01-11T10:19:39.559Z,101207.00
2023-01-11T10:22:32.798Z,101211.00
2023-01-11T10:25:11.785Z,101195.00
2023-01-11T10:27:55.563Z,101217.00
2023-01-11T10:30:32.417Z,101221.00
2023-01-11T10:33:36.313Z,101211.00
2023-01-11T10:36:55.206Z,101211.00
2023-01-11T10:39:32.972Z,101210.00
2023-01-11T10:42:12.153Z,101219.00
2023-01-11T10:44:52.297Z,101215.00
2023-01-11T10:47:23.789Z,101211.00
2023-01-11T10:50:22.115Z,101208.00
2023-01-11T10:53:18.680Z,101203.00
2023-01-11T10:55:58.276Z,101193.00
2023-01-11T10:58:51.005Z,101195.00
2023-01-11T11:01:38.832Z,101190.00
2023-01-11T11:04:45.031Z,101193.00
2023-01-11T11:07:19.989Z,101198.00
2023-01-11T11:10:11.484Z,101198.00
2023-01-11T11:13:08.627Z,101196.00
2023-01-11T11:15:48.015Z,101198.00
2023-01-11T11:18:14.650Z,101200.00
2023-01-11T11:20:44.035Z,101211.00
2023-01-11T11:23:16.859Z,101207.00
2023-01-11T11:25:50.261Z,101210.00
2023-01-11T11:28:23.104Z,101209.00
2023-01-11T11:30:53.497Z,101208.00
2023-01-11T11:33:24.822Z,101216.00
2023-01-11T11:36:01.330Z,101217.00
2023-01-11T11:38:30.224Z,101228.00
2023-01-11T11:41:10.277Z,101220.00
2023-01-11T11:43:38.964Z,101236.00
2023-01-11T11:46:19.907Z,101226.00
2023-01-11T11:49:13.253Z,101227.00
2023-01-11T11:51:41.762Z,101221.00
2023-01-11T11:54:18.293Z,101221.00
2023-01-11T11:56:44.969Z,101211.00
2023-01-11T11:59:17.919Z,101217.00
2023-01-11T12:01:48.593Z,101218.00
2023-01-11T12:04:18.716Z,101209.00
2023-01-11T12:07:05.980Z,101214.00
2023-01-11T12:09:34.013Z,101213.00
2023-01-11T12:12:01.090Z,101222.00
2023-01-11T12:14:29.992Z,101208.00
2023-01-11T12:16:59.792Z,101211.00
2023-01-11T12:19:29.125Z,101205.00
2023-01-11T12:22:19.962Z,101210.00
2023-01-11T12:24:48.079Z,101197.00
2023-01-11T12:27:40.694Z,101198.00
2023-01-11T12:30:25.547Z,101185.00
2023-01-11T12:33:20.379Z,101179.00
2023-01-11T12:36:11.077Z,101177.00
2023-01-11T12:38:55.885Z,101166.00
2023-01-11T12:41:57.619Z,101167.00
2023-01-11T12:44:34.483Z,101178.00
2023-01-11T12:47:39.375Z,101170.00
2023-01-11T12:50:25.178Z,101176.00
2023-01-11T12:53:16.437Z,101175.00
2023-01-11T12:55:52.275Z,101181.00
2023-01-11T12:58:33.375Z,101178.00
2023-01-11T13:01:26.251Z,101185.00
2023-01-11T13:04:12.333Z,101187.00
2023-01-11T13:06:53.825Z,101180.00
2023-01-11T13:09:58.611Z,101190.00
2023-01-11T13:12:45.990Z,101181.00
2023-01-11T13:15:12.582Z,101179.00
2023-01-11T13:17:47.680Z,101176.00
2023-01-11T13:20:29.381Z,101176.00
2023-01-11T13:23:04.593Z,101178.00
2023-01-11T13:25:35.328Z,101177.00
2023-01-11T13:28:11.053Z,101177.00
2023-01-11T13:30:42.836Z,101176.00
2023-01-11T13:33:18.572Z,101177.00
2023-01-11T13:35:54.426Z,101171.00
2023-01-11T13:38:45.277Z,101172.00
2023-01-11T13:41:17.893Z,101170.00
2023-01-11T13:44:07.098Z,101176.00
2023-01-11T13:46:42.865Z,101177.00
2023-01-11T13:49:45.537Z,101180.00
2023-01-11T13:52:19.931Z,101160.00
2023-01-11T13:55:02.273Z,101156.00
2023-01-11T13:57:50.661Z,101169.00
2023-01-11T14:00:31.667Z,101155.00
2023-01-11T14:03:13.810Z,101149.00
2023-01-11T14:05:51.083Z,101158.00
2023-01-11T14:08:40.889Z,101147.00
2023-01-11T14:11:27.018Z,101146.00
2023-01-11T14:14:15.808Z,101146.00
2023-01-11T14:17:00.364Z,101152.00
2023-01-11T14:19:48.508Z,101156.00
2023-01-11T14:22:31.518Z,101146.00
2023-01-11T14:24:58.114Z,101159.00
2023-01-11T14:27:54.085Z,101150.00
2023-01-11T14:31:09.368Z,101139.00
2023-01-11T14:33:41.842Z,101147.00
2023-01-11T14:36:33.147Z,101138.00
2023-01-11T14:39:14.167Z,101138.00
2023-01-11T14:42:02.223Z,101144.00
2023-01-11T14:44:57.718Z,101134.00
2023-01-11T14:47:28.852Z,101133.00
2023-01-11T14:50:04.995Z,101138.00
2023-01-11T14:52:40.162Z,101132.00
2023-01-11T14:55:20.651Z,101137.00
2023-01-11T14:57:56.045Z,101125.00
2023-01-11T15:00:22.664Z,101142.00
2023-01-11T15:03:01.549Z,101143.00
2023-01-11T15:05:31.245Z,101142.00
2023-01-11T15:08:15.882Z,101136.00
2023-01-11T15:10:58.367Z,101137.00
2023-01-11T15:13:33.894Z,101130.00
2023-01-11T15:16:36.764Z,101140.00
2023-01-11T15:19:10.152Z,101148.00
2023-01-11T15:21:42.120Z,101147.00
2023-01-11T15:24:31.940Z,101144.00
2023-01-11T15:27:01.228Z,101135.00
2023-01-11T15:29:32.371Z,101149.00
2023-01-11T15:32:01.819Z,101141.00
2023-01-11T15:34:40.665Z,101156.00
2023-01-11T15:37:28.564Z,101159.00
2023-01-11T15:40:01.394Z,101156.00
2023-01-11T15:43:05.663Z,101150.00
2023-01-11T15:46:06.244Z,101158.00
2023-01-11T15:48:38.902Z,101145.00
2023-01-11T15:51:25.777Z,101153.00
2023-01-11T15:53:58.507Z,101160.00
2023-01-11T15:57:03.399Z,101160.00
2023-01-11T16:00:03.594Z,101151.00
2023-01-11T16:02:42.878Z,101164.00
2023-01-11T16:05:19.697Z,101153.00
2023-01-11T16:08:00.481Z,101151.00
2023-01-11T16:10:53.107Z,101138.00
2023-01-11T16:14:00.227Z,101142.00
2023-01-11T16:16:31.780Z,101139.00
2023-01-11T16:19:20.089Z,101133.00
2023-01-11T16:21:50.547Z,101155.00
2023-01-11T16:24:23.803Z,101174.00
2023-01-11T16:26:55.734Z,101153.00
2023-01-11T16:29:30.087Z,101137.00
2023-01-11T16:32:18.182Z,101151.00
2023-01-11T16:34:47.175Z,101149.00
2023-01-11T16:37:25.694Z,101156.00
2023-01-11T16:39:57.255Z,101161.00
2023-01-11T16:42:25.728Z,101176.00
2023-01-11T16:45:01.332Z,101150.00
2023-01-11T16:47:28.048Z,101148.00
2023-01-11T16:50:21.501Z,101150.00
2023-01-11T16:53:15.593Z,101144.00
2023-01-11T16:55:51.505Z,101148.00
2023-01-11T16:58:29.475Z,101145.00
2023-01-11T17:01:05.064Z,101158.00
2023-01-11T17:03:42.628Z,101170.00
2023-01-11T17:06:15.368Z,101160.00
2023-01-11T17:08:47.489Z,101169.00
2023-01-11T17:11:28.952Z,101175.00
2023-01-11T17:14:26.312Z,101189.00
2023-01-11T17:16:59.239Z,101172.00
2023-01-11T17:19:34.749Z,101165.00
2023-01-11T17:22:07.920Z,101156.00
2023-01-11T17:24:42.558Z,101156.00
2023-01-11T17:27:19.261Z,101153.00
2023-01-11T17:29:47.494Z,101143.00
2023-01-11T17:32:23.415Z,101150.00
2023-01-11T17:34:51.224Z,101146.00
2023-01-11T17:37:18.747Z,101140.00
2023-01-11T17:39:51.939Z,101137.00
2023-01-11T17:42:37.802Z,101134.00
2023-01-11T17:45:19.422Z,101127.00
2023-01-11T17:47:51.008Z,101121.00
2023-01-11T17:50:30.204Z,101116.00
2023-01-11T17:53:05.925Z,101115.00
2023-01-11T17:55:33.379Z,101106.00
2023-01-11T17:58:20.108Z,101099.00
2023-01-11T18:01:05.346Z,101088.00
2023-01-11T18:03:39.919Z,101084.00
2023-01-11T18:06:12.458Z,101076.00
2023-01-11T18:08:39.280Z,101065.00
2023-01-11T18:11:06.132Z,101068.00
2023-01-11T18:13:35.007Z,101062.00
2023-01-11T18:16:02.829Z,101054.00
2023-01-11T18:18:41.548Z,101050.00
2023-01-11T18:21:26.503Z,101058.00
2023-01-11T18:24:08.278Z,101044.00
2023-01-11T18:26:36.610Z,101050.00
2023-01-11T18:29:04.304Z,101044.00
2023-01-11T18:31:31.607Z,101045.00
2023-01-11T18:33:58.967Z,101056.00
2023-01-11T18:36:27.537Z,101058.00
2023-01-11T18:38:54.166Z,101059.00
2023-01-11T18:41:39.268Z,101051.00
2023-01-11T18:44:06.505Z,101040.00
2023-01-11T18:46:33.103Z,101044.00
2023-01-11T18:48:59.818Z,101047.00
2023-01-11T18:51:34.087Z,101026.00
2023-01-11T18:54:00.653Z,101035.00
2023-01-11T18:56:27.207Z,101017.00
2023-01-11T18:58:53.887Z,101042.00
2023-01-11T19:01:20.542Z,101060.00
2023-01-11T19:03:47.335Z,101088.00
2023-01-11T19:06:14.086Z,101083.00
2023-01-11T19:08:40.870Z,101086.00
2023-01-11T19:11:07.567Z,101096.00
2023-01-11T19:13:34.269Z,101091.00
2023-01-11T19:16:01.772Z,101077.00
2023-01-11T19:18:29.329Z,101094.00
2023-01-11T19:21:01.880Z,101086.00
2023-01-11T19:23:28.944Z,101095.00
2023-01-11T19:26:01.360Z,101096.00
2023-01-11T19:28:28.557Z,101094.00
2023-01-11T19:30:55.203Z,101092.00
2023-01-11T19:33:22.024Z,101101.00
2023-01-11T19:35:49.509Z,101116.00
2023-01-11T19:38:20.098Z,101104.00
2023-01-11T19:40:50.241Z,101096.00
2023-01-11T19:43:17.378Z,101107.00
2023-01-11T19:45:44.042Z,101119.00
2023-01-11T19:48:11.005Z,101121.00
2023-01-11T19:50:37.653Z,101118.00
2023-01-11T19:53:04.246Z,101118.00
2023-01-11T19:55:30.932Z,101120.00
2023-01-11T19:57:57.676Z,101112.00
2023-01-11T20:00:24.263Z,101117.00
2023-01-11T20:02:51.027Z,101122.00
2023-01-11T20:05:17.790Z,101118.00
2023-01-11T20:07:44.388Z,101120.00
2023-01-11T20:10:11.769Z,101119.00
2023-01-11T20:12:38.438Z,101105.00
2023-01-11T20:15:05.488Z,101110.00
2023-01-11T20:17:33.448Z,101096.00
2023-01-11T20:20:00.019Z,101105.00
2023-01-11T20:22:26.794Z,101096.00
2023-01-11T20:24:53.368Z,101091.00
2023-01-11T20:27:20.255Z,101079.00
2023-01-11T20:29:47.831Z,101090.00
2023-01-11T20:32:39.174Z,101094.00
2023-01-11T20:35:03.018Z,101094.00
2023-01-11T20:37:29.696Z,101086.00
2023-01-11T20:39:56.290Z,101085.00
2023-01-11T20:42:22.953Z,101096.00
2023-01-11T20:44:49.570Z,101096.00
2023-01-11T20:47:16.214Z,101100.00
2023-01-11T20:49:42.872Z,101100.00
2023-01-11T20:52:09.597Z,101093.00
2023-01-11T20:54:37.543Z,101100.00
2023-01-11T20:57:08.213Z,101095.00
2023-01-11T20:59:34.931Z,101081.00
2023-01-11T21:02:01.648Z,101090.00
2023-01-11T21:04:28.324Z,101076.00
2023-01-11T21:06:54.899Z,101082.00
2023-01-11T21:09:21.503Z,101085.00
2023-01-11T21:11:54.145Z,101079.00
2023-01-11T21:14:22.152Z,101076.00
2023-01-11T21:16:49.228Z,101080.00
2023-01-11T21:19:16.504Z,101082.00
2023-01-11T21:21:43.999Z,101076.00
2023-01-11T21:24:13.158Z,101067.00
2023-01-11T21:26:41.989Z,101065.00
2023-01-11T21:29:10.502Z,101068.00
2023-01-11T21:31:38.258Z,101068.00
2023-01-11T21:34:05.539Z,101073.00
2023-01-11T21:36:32.481Z,101083.00
2023-01-11T21:39:00.347Z,101087.00
2023-01-11T21:41:47.981Z,101087.00
2023-01-11T21:44:15.872Z,101074.00
2023-01-11T21:46:43.584Z,101059.00
2023-01-11T21:49:11.381Z,101064.00
2023-01-11T21:51:38.711Z,101055.00
2023-01-11T21:54:12.472Z,101050.00
2023-01-11T21:56:39.552Z,101056.00
2023-01-11T21:59:06.184Z,101055.00
2023-01-11T22:01:32.967Z,101066.00
2023-01-11T22:03:59.792Z,101063.00
2023-01-11T22:06:26.469Z,101069.00
2023-01-11T22:08:53.172Z,101058.00
2023-01-11T22:11:19.830Z,101063.00
2023-01-11T22:13:46.528Z,101067.00
2023-01-11T22:16:17.897Z,101059.00
2023-01-11T22:18:45.727Z,101060.00
2023-01-11T22:21:19.118Z,101064.00
2023-01-11T22:23:47.135Z,101064.00
2023-01-11T22:26:16.334Z,101063.00
2023-01-11T22:29:02.071Z,101068.00
2023-01-11T22:31:29.521Z,101063.00
2023-01-11T22:33:56.652Z,101066.00
2023-01-11T22:36:24.379Z,101078.00
2023-01-11T22:38:51.514Z,101076.00
2023-01-11T22:41:18.667Z,101076.00
2023-01-11T22:43:45.922Z,101074.00
2023-01-11T22:46:15.694Z,101073.00
2023-01-11T22:48:42.493Z,101075.00
2023-01-11T22:51:10.474Z,101060.00
2023-01-11T22:53:41.534Z,101061.00
2023-01-11T22:56:09.846Z,101055.00
2023-01-11T22:58:37.091Z,101061.00
2023-01-11T23:01:15.479Z,101063.00
2023-01-11T23:03:43.160Z,101054.00
2023-01-11T23:06:10.224Z,101048.00
2023-01-11T23:08:42.147Z,101064.00
2023-01-11T23:11:10.332Z,101051.00
2023-01-11T23:13:52.348Z,101047.00
2023-01-11T23:16:19.664Z,101048.00
2023-01-11T23:18:46.383Z,101036.00
2023-01-11T23:21:13.119Z,101029.00
2023-01-11T23:23:39.775Z,101023.00
2023-01-11T23:26:07.362Z,101023.00
2023-01-11T23:28:34.952Z,101021.00
2023-01-11T23:31:11.780Z,101014.00
2023-01-11T23:33:38.480Z,101019.00
2023-01-11T23:36:05.565Z,101008.00
2023-01-11T23:38:32.923Z,101009.00
2023-01-11T23:41:29.717Z,100999.00
2023-01-11T23:43:56.730Z,100987.00
2023-01-11T23:46:42.405Z,101002.00
2023-01-11T23:49:10.256Z,100992.00
2023-01-11T23:51:37.765Z,100985.00
2023-01-11T23:54:05.655Z,100976.00
2023-01-11T23:56:33.042Z,100951.00
2023-01-11T23:59:00.286Z,100949.00
